AFR62HP LFBO-LFPG
Flight info
| Callsign | AFR62HP |
|---|---|
| Flight time | 1h 10m |
| Altitude | 32000 |
| Route | FISTO DCT POI DCT PEPAX UT182 KEPER |
| Aircraft | A321/M-SDE2E3FGIJ1RWY/HB1 |
Departure
| Time | 2026-05-08 11:45 |
|---|---|
| Airport | Toulouse-Blagnac Airport (LFBO) |
Arrival
| Time | 2026-05-08 12:55 |
|---|---|
| Airport | Charles de Gaulle International Airport (LFPG) |
| Time | Latitude | Longitude | Altitude | Speed | Heading |
|---|---|---|---|---|---|
| 2026-05-08 11:25 | 43.63034 | 1.37243 | 494 ft | 0 kts | 53° |
| 2026-05-08 11:35 | 43.63032 | 1.37239 | 482 ft | 3 kts | 53° |
| 2026-05-08 11:36 | 43.63021 | 1.37219 | 483 ft | 4 kts | 50° |
| 2026-05-08 11:36 | 43.63003 | 1.37192 | 485 ft | 4 kts | 39° |
| 2026-05-08 11:36 | 43.62981 | 1.37175 | 486 ft | 4 kts | 358° |
| 2026-05-08 11:36 | 43.62970 | 1.37179 | 486 ft | 0 kts | 322° |
| 2026-05-08 11:38 | 43.62972 | 1.37176 | 486 ft | 1 kts | 322° |
| 2026-05-08 11:38 | 43.62982 | 1.37166 | 483 ft | 3 kts | 322° |
| 2026-05-08 11:38 | 43.63000 | 1.37144 | 488 ft | 4 kts | 317° |
| 2026-05-08 11:39 | 43.63017 | 1.37105 | 491 ft | 5 kts | 281° |
| 2026-05-08 11:39 | 43.63005 | 1.37058 | 486 ft | 6 kts | 240° |
| 2026-05-08 11:39 | 43.62981 | 1.37012 | 492 ft | 6 kts | 233° |
| 2026-05-08 11:39 | 43.62955 | 1.36960 | 488 ft | 7 kts | 242° |
| 2026-05-08 11:40 | 43.62957 | 1.36893 | 494 ft | 8 kts | 299° |
| 2026-05-08 11:40 | 43.63013 | 1.36826 | 492 ft | 13 kts | 322° |
| 2026-05-08 11:40 | 43.63093 | 1.36743 | 487 ft | 15 kts | 323° |
| 2026-05-08 11:40 | 43.63176 | 1.36655 | 489 ft | 15 kts | 323° |
| 2026-05-08 11:41 | 43.63260 | 1.36569 | 486 ft | 15 kts | 323° |
| 2026-05-08 11:41 | 43.63345 | 1.36481 | 489 ft | 15 kts | 322° |
| 2026-05-08 11:41 | 43.63431 | 1.36393 | 489 ft | 15 kts | 323° |
| 2026-05-08 11:41 | 43.63517 | 1.36303 | 490 ft | 15 kts | 323° |
| 2026-05-08 11:42 | 43.63603 | 1.36213 | 491 ft | 16 kts | 323° |
| 2026-05-08 11:42 | 43.63691 | 1.36122 | 492 ft | 16 kts | 323° |
| 2026-05-08 11:42 | 43.63775 | 1.36035 | 488 ft | 15 kts | 323° |
| 2026-05-08 11:42 | 43.63812 | 1.35941 | 489 ft | 11 kts | 256° |
| 2026-05-08 11:43 | 43.63771 | 1.35850 | 487 ft | 11 kts | 232° |
| 2026-05-08 11:43 | 43.63720 | 1.35793 | 492 ft | 9 kts | 179° |
| 2026-05-08 11:43 | 43.63660 | 1.35842 | 489 ft | 10 kts | 143° |
| 2026-05-08 11:43 | 43.63657 | 1.35845 | 490 ft | 0 kts | 142° |
| 2026-05-08 11:44 | 43.63456 | 1.36057 | 490 ft | 71 kts | 143° |
| 2026-05-08 11:44 | 43.62896 | 1.36638 | 489 ft | 127 kts | 143° |
| 2026-05-08 11:44 | 43.62067 | 1.37494 | 519 ft | 167 kts | 142° |
| 2026-05-08 11:45 | 43.61134 | 1.38432 | 1155 ft | 162 kts | 141° |
| 2026-05-08 11:45 | 43.60213 | 1.39334 | 1736 ft | 165 kts | 141° |
| 2026-05-08 11:45 | 43.59234 | 1.40226 | 2256 ft | 172 kts | 144° |
| 2026-05-08 11:45 | 43.58180 | 1.41084 | 2775 ft | 179 kts | 147° |
| 2026-05-08 11:46 | 43.57124 | 1.42005 | 3282 ft | 181 kts | 141° |
| 2026-05-08 11:46 | 43.56105 | 1.43092 | 3656 ft | 189 kts | 140° |
| 2026-05-08 11:46 | 43.55060 | 1.44248 | 4027 ft | 195 kts | 141° |
| 2026-05-08 11:46 | 43.53847 | 1.45182 | 4416 ft | 208 kts | 157° |
| 2026-05-08 11:47 | 43.52363 | 1.45549 | 4788 ft | 227 kts | 179° |
| 2026-05-08 11:47 | 43.50733 | 1.45116 | 5054 ft | 254 kts | 200° |
| 2026-05-08 11:47 | 43.49215 | 1.43717 | 5537 ft | 272 kts | 224° |
| 2026-05-08 11:47 | 43.48193 | 1.41509 | 6224 ft | 279 kts | 247° |
| 2026-05-08 11:48 | 43.47895 | 1.38846 | 6906 ft | 287 kts | 273° |
| 2026-05-08 11:48 | 43.48438 | 1.36203 | 7590 ft | 293 kts | 298° |
| 2026-05-08 11:48 | 43.49786 | 1.34096 | 8290 ft | 297 kts | 325° |
| 2026-05-08 11:48 | 43.51684 | 1.32983 | 8973 ft | 301 kts | 351° |
| 2026-05-08 11:49 | 43.53768 | 1.32707 | 9690 ft | 302 kts | 355° |
| 2026-05-08 11:49 | 43.55886 | 1.32445 | 10223 ft | 311 kts | 353° |
| 2026-05-08 11:49 | 43.58103 | 1.31990 | 10362 ft | 333 kts | 351° |
| 2026-05-08 11:49 | 43.60462 | 1.31508 | 10572 ft | 351 kts | 352° |
| 2026-05-08 11:50 | 43.62912 | 1.31151 | 11056 ft | 358 kts | 355° |
| 2026-05-08 11:50 | 43.65416 | 1.30951 | 11603 ft | 363 kts | 358° |
| 2026-05-08 11:50 | 43.67914 | 1.30857 | 12231 ft | 365 kts | 358° |
| 2026-05-08 11:50 | 43.70457 | 1.30708 | 12876 ft | 368 kts | 356° |
| 2026-05-08 11:51 | 43.73023 | 1.30503 | 13433 ft | 372 kts | 355° |
| 2026-05-08 11:51 | 43.75614 | 1.30248 | 14033 ft | 374 kts | 355° |
| 2026-05-08 11:51 | 43.78210 | 1.29966 | 14611 ft | 376 kts | 354° |
| 2026-05-08 11:51 | 43.80837 | 1.29672 | 15092 ft | 381 kts | 355° |
| 2026-05-08 11:52 | 43.83487 | 1.29377 | 15617 ft | 383 kts | 355° |
| 2026-05-08 11:52 | 43.86150 | 1.29086 | 16183 ft | 385 kts | 355° |
| 2026-05-08 11:52 | 43.88834 | 1.28797 | 16677 ft | 388 kts | 355° |
| 2026-05-08 11:52 | 43.91539 | 1.28511 | 17175 ft | 391 kts | 355° |
| 2026-05-08 11:53 | 43.94262 | 1.28227 | 17666 ft | 394 kts | 355° |
| 2026-05-08 11:53 | 43.97013 | 1.27941 | 18129 ft | 398 kts | 355° |
| 2026-05-08 11:53 | 43.99783 | 1.27654 | 18572 ft | 401 kts | 355° |
| 2026-05-08 11:53 | 44.02572 | 1.27361 | 18997 ft | 403 kts | 355° |
| 2026-05-08 11:54 | 44.05373 | 1.27065 | 19427 ft | 404 kts | 355° |
| 2026-05-08 11:54 | 44.08178 | 1.26769 | 19843 ft | 406 kts | 355° |
| 2026-05-08 11:54 | 44.11003 | 1.26471 | 20236 ft | 408 kts | 355° |
| 2026-05-08 11:54 | 44.13839 | 1.26170 | 20617 ft | 410 kts | 355° |
| 2026-05-08 11:55 | 44.16689 | 1.25865 | 20998 ft | 412 kts | 355° |
| 2026-05-08 11:55 | 44.19549 | 1.25559 | 21382 ft | 413 kts | 355° |
| 2026-05-08 11:55 | 44.22424 | 1.25253 | 21753 ft | 416 kts | 355° |
| 2026-05-08 11:55 | 44.25308 | 1.24945 | 22171 ft | 416 kts | 355° |
| 2026-05-08 11:56 | 44.28203 | 1.24638 | 22561 ft | 418 kts | 355° |
| 2026-05-08 11:56 | 44.31105 | 1.24331 | 22922 ft | 420 kts | 354° |
| 2026-05-08 11:56 | 44.34025 | 1.24020 | 23321 ft | 421 kts | 354° |
| 2026-05-08 11:56 | 44.36948 | 1.23709 | 23677 ft | 423 kts | 354° |
| 2026-05-08 11:57 | 44.39889 | 1.23394 | 23978 ft | 425 kts | 355° |
| 2026-05-08 11:57 | 44.42839 | 1.23079 | 24329 ft | 425 kts | 354° |
| 2026-05-08 11:57 | 44.45784 | 1.22660 | 24680 ft | 425 kts | 348° |
| 2026-05-08 11:57 | 44.48651 | 1.21675 | 24985 ft | 425 kts | 341° |
| 2026-05-08 11:58 | 44.51448 | 1.20480 | 25295 ft | 427 kts | 341° |
| 2026-05-08 11:58 | 44.54294 | 1.19269 | 25594 ft | 429 kts | 341° |
| 2026-05-08 11:58 | 44.57155 | 1.18053 | 25900 ft | 431 kts | 341° |
| 2026-05-08 11:59 | 44.62916 | 1.15623 | 26530 ft | 433 kts | 341° |
| 2026-05-08 11:59 | 44.65809 | 1.14404 | 26856 ft | 435 kts | 341° |
| 2026-05-08 11:59 | 44.68718 | 1.13172 | 27065 ft | 438 kts | 341° |
| 2026-05-08 11:59 | 44.71648 | 1.11930 | 27327 ft | 441 kts | 341° |
| 2026-05-08 12:00 | 44.74592 | 1.10678 | 27559 ft | 443 kts | 341° |
| 2026-05-08 12:00 | 44.77549 | 1.09415 | 27838 ft | 445 kts | 341° |
| 2026-05-08 12:00 | 44.80520 | 1.08144 | 28143 ft | 447 kts | 341° |
| 2026-05-08 12:00 | 44.83496 | 1.06872 | 28421 ft | 448 kts | 340° |
| 2026-05-08 12:01 | 44.86492 | 1.05592 | 28665 ft | 450 kts | 340° |
| 2026-05-08 12:01 | 44.89494 | 1.04308 | 28941 ft | 452 kts | 340° |
| 2026-05-08 12:01 | 44.92508 | 1.03020 | 29202 ft | 454 kts | 340° |
| 2026-05-08 12:01 | 44.95538 | 1.01723 | 29428 ft | 456 kts | 340° |
| 2026-05-08 12:02 | 44.98576 | 1.00417 | 29675 ft | 457 kts | 340° |
| 2026-05-08 12:02 | 45.01622 | 0.99105 | 29946 ft | 458 kts | 340° |
| 2026-05-08 12:02 | 45.04668 | 0.97791 | 30162 ft | 458 kts | 340° |
| 2026-05-08 12:02 | 45.07725 | 0.96473 | 30342 ft | 460 kts | 340° |
| 2026-05-08 12:03 | 45.10790 | 0.95155 | 30509 ft | 461 kts | 340° |
| 2026-05-08 12:03 | 45.13856 | 0.93835 | 30749 ft | 460 kts | 340° |
| 2026-05-08 12:03 | 45.16915 | 0.92514 | 30971 ft | 460 kts | 340° |
| 2026-05-08 12:03 | 45.19973 | 0.91191 | 31240 ft | 459 kts | 340° |
| 2026-05-08 12:04 | 45.23015 | 0.89875 | 31541 ft | 456 kts | 340° |
| 2026-05-08 12:04 | 45.26051 | 0.88562 | 31812 ft | 455 kts | 339° |
| 2026-05-08 12:04 | 45.29078 | 0.87248 | 31919 ft | 452 kts | 339° |
| 2026-05-08 12:04 | 45.32049 | 0.85959 | 31955 ft | 442 kts | 339° |
| 2026-05-08 12:05 | 45.37888 | 0.83417 | 31957 ft | 437 kts | 339° |
| 2026-05-08 12:05 | 45.43689 | 0.80886 | 31968 ft | 435 kts | 339° |
| 2026-05-08 12:06 | 45.49480 | 0.78351 | 31972 ft | 435 kts | 339° |
| 2026-05-08 12:06 | 45.55280 | 0.75805 | 31976 ft | 438 kts | 339° |
| 2026-05-08 12:07 | 45.61104 | 0.73242 | 31998 ft | 437 kts | 339° |
| 2026-05-08 12:07 | 45.66912 | 0.70691 | 31989 ft | 437 kts | 339° |
| 2026-05-08 12:08 | 45.72675 | 0.68152 | 31993 ft | 436 kts | 339° |
| 2026-05-08 12:08 | 45.78510 | 0.65577 | 32000 ft | 435 kts | 339° |
| 2026-05-08 12:09 | 45.84289 | 0.63017 | 31996 ft | 434 kts | 339° |
| 2026-05-08 12:09 | 45.90020 | 0.60471 | 31996 ft | 434 kts | 339° |
| 2026-05-08 12:10 | 45.95782 | 0.57904 | 31996 ft | 433 kts | 339° |
| 2026-05-08 12:10 | 46.01536 | 0.55344 | 32008 ft | 432 kts | 339° |
| 2026-05-08 12:11 | 46.07266 | 0.52792 | 32004 ft | 431 kts | 339° |
| 2026-05-08 12:11 | 46.12984 | 0.50227 | 32000 ft | 430 kts | 339° |
| 2026-05-08 12:12 | 46.18690 | 0.47665 | 32012 ft | 429 kts | 339° |
| 2026-05-08 12:12 | 46.24378 | 0.45106 | 32002 ft | 427 kts | 339° |
| 2026-05-08 12:13 | 46.30048 | 0.42548 | 32007 ft | 426 kts | 339° |
| 2026-05-08 12:13 | 46.35705 | 0.39997 | 32003 ft | 426 kts | 339° |
| 2026-05-08 12:14 | 46.41362 | 0.37433 | 31986 ft | 426 kts | 339° |
| 2026-05-08 12:14 | 46.47024 | 0.34863 | 31973 ft | 426 kts | 339° |
| 2026-05-08 12:15 | 46.52687 | 0.32288 | 31965 ft | 427 kts | 339° |
| 2026-05-08 12:15 | 46.58535 | 0.30664 | 31979 ft | 433 kts | 355° |
| 2026-05-08 12:16 | 46.64543 | 0.31784 | 31980 ft | 438 kts | 8° |
| 2026-05-08 12:16 | 46.70505 | 0.33627 | 31978 ft | 438 kts | 8° |
| 2026-05-08 12:17 | 46.76467 | 0.35460 | 31977 ft | 438 kts | 8° |
| 2026-05-08 12:17 | 46.82388 | 0.37270 | 31979 ft | 438 kts | 8° |
| 2026-05-08 12:18 | 46.88347 | 0.39097 | 31979 ft | 438 kts | 8° |
| 2026-05-08 12:18 | 46.94302 | 0.40943 | 31988 ft | 438 kts | 8° |
| 2026-05-08 12:19 | 47.00248 | 0.42791 | 32005 ft | 436 kts | 7° |
| 2026-05-08 12:19 | 47.06179 | 0.44546 | 32008 ft | 432 kts | 2° |
| 2026-05-08 12:20 | 47.12082 | 0.44303 | 32005 ft | 421 kts | 346° |
| 2026-05-08 12:20 | 47.17863 | 0.42884 | 31997 ft | 421 kts | 346° |
| 2026-05-08 12:21 | 47.23637 | 0.41468 | 32015 ft | 420 kts | 346° |
| 2026-05-08 12:21 | 47.29407 | 0.40067 | 31987 ft | 421 kts | 347° |
| 2026-05-08 12:22 | 47.35186 | 0.38653 | 31984 ft | 421 kts | 347° |
| 2026-05-08 12:22 | 47.40975 | 0.37240 | 31997 ft | 422 kts | 347° |
| 2026-05-08 12:23 | 47.46756 | 0.35812 | 32000 ft | 421 kts | 346° |
| 2026-05-08 12:23 | 47.52535 | 0.34382 | 32002 ft | 421 kts | 346° |
| 2026-05-08 12:24 | 47.57333 | 0.33197 | 31994 ft | 421 kts | 347° |
| 2026-05-08 12:24 | 47.63163 | 0.31751 | 32003 ft | 432 kts | 346° |
| 2026-05-08 12:25 | 47.69136 | 0.30261 | 31031 ft | 433 kts | 347° |
| 2026-05-08 12:25 | 47.72093 | 0.29525 | 29699 ft | 429 kts | 347° |
| 2026-05-08 12:25 | 47.75003 | 0.28807 | 28707 ft | 415 kts | 349° |
| 2026-05-08 12:26 | 47.77802 | 0.28619 | 28450 ft | 397 kts | 359° |
| 2026-05-08 12:26 | 47.80531 | 0.29178 | 27964 ft | 396 kts | 10° |
| 2026-05-08 12:26 | 47.83138 | 0.30503 | 27674 ft | 400 kts | 20° |
| 2026-05-08 12:26 | 47.85595 | 0.32570 | 27352 ft | 410 kts | 31° |
| 2026-05-08 12:27 | 47.87931 | 0.35008 | 27027 ft | 410 kts | 31° |
| 2026-05-08 12:27 | 47.90261 | 0.37450 | 26706 ft | 409 kts | 31° |
| 2026-05-08 12:27 | 47.92579 | 0.39884 | 26384 ft | 407 kts | 31° |
| 2026-05-08 12:27 | 47.94887 | 0.42308 | 26073 ft | 405 kts | 31° |
| 2026-05-08 12:28 | 47.97181 | 0.44718 | 25754 ft | 402 kts | 31° |
| 2026-05-08 12:28 | 47.99460 | 0.47110 | 25441 ft | 399 kts | 31° |
| 2026-05-08 12:28 | 48.01730 | 0.49494 | 25142 ft | 398 kts | 30° |
| 2026-05-08 12:28 | 48.03981 | 0.51866 | 24820 ft | 395 kts | 30° |
| 2026-05-08 12:29 | 48.06224 | 0.54231 | 24517 ft | 393 kts | 30° |
| 2026-05-08 12:29 | 48.08457 | 0.56582 | 24212 ft | 392 kts | 30° |
| 2026-05-08 12:29 | 48.10679 | 0.58923 | 23907 ft | 390 kts | 30° |
| 2026-05-08 12:29 | 48.12891 | 0.61259 | 23603 ft | 388 kts | 30° |
| 2026-05-08 12:30 | 48.15090 | 0.63586 | 23273 ft | 387 kts | 31° |
| 2026-05-08 12:30 | 48.17283 | 0.65912 | 22980 ft | 385 kts | 31° |
| 2026-05-08 12:30 | 48.19465 | 0.68229 | 22679 ft | 384 kts | 31° |
| 2026-05-08 12:30 | 48.21643 | 0.70540 | 22375 ft | 383 kts | 31° |
| 2026-05-08 12:31 | 48.23816 | 0.72846 | 22087 ft | 382 kts | 31° |
| 2026-05-08 12:31 | 48.25976 | 0.75144 | 21786 ft | 380 kts | 31° |
| 2026-05-08 12:31 | 48.28130 | 0.77438 | 21495 ft | 379 kts | 31° |
| 2026-05-08 12:31 | 48.30253 | 0.79710 | 21200 ft | 365 kts | 32° |
| 2026-05-08 12:32 | 48.32254 | 0.81934 | 20670 ft | 355 kts | 37° |
| 2026-05-08 12:32 | 48.34029 | 0.84491 | 20406 ft | 353 kts | 45° |
| 2026-05-08 12:32 | 48.35563 | 0.87389 | 20158 ft | 355 kts | 53° |
| 2026-05-08 12:32 | 48.36814 | 0.90597 | 19906 ft | 356 kts | 60° |
| 2026-05-08 12:33 | 48.37956 | 0.93899 | 19662 ft | 355 kts | 61° |
| 2026-05-08 12:33 | 48.39095 | 0.97190 | 19480 ft | 354 kts | 61° |
| 2026-05-08 12:33 | 48.40228 | 1.00463 | 19209 ft | 351 kts | 61° |
| 2026-05-08 12:33 | 48.41338 | 1.03668 | 18787 ft | 349 kts | 62° |
| 2026-05-08 12:34 | 48.42454 | 1.06899 | 18374 ft | 347 kts | 62° |
| 2026-05-08 12:34 | 48.43560 | 1.10107 | 17920 ft | 344 kts | 62° |
| 2026-05-08 12:34 | 48.44657 | 1.13286 | 17475 ft | 340 kts | 62° |
| 2026-05-08 12:34 | 48.45742 | 1.16439 | 17037 ft | 337 kts | 62° |
| 2026-05-08 12:35 | 48.46816 | 1.19567 | 16608 ft | 335 kts | 62° |
| 2026-05-08 12:35 | 48.47880 | 1.22673 | 16187 ft | 332 kts | 62° |
| 2026-05-08 12:35 | 48.48937 | 1.25760 | 15772 ft | 330 kts | 62° |
| 2026-05-08 12:35 | 48.49986 | 1.28824 | 15366 ft | 328 kts | 62° |
| 2026-05-08 12:36 | 48.51025 | 1.31869 | 14966 ft | 325 kts | 63° |
| 2026-05-08 12:36 | 48.52054 | 1.34888 | 14586 ft | 323 kts | 63° |
| 2026-05-08 12:36 | 48.53080 | 1.37889 | 14194 ft | 321 kts | 63° |
| 2026-05-08 12:36 | 48.54098 | 1.40871 | 13794 ft | 319 kts | 63° |
| 2026-05-08 12:37 | 48.55114 | 1.43833 | 13391 ft | 316 kts | 62° |
| 2026-05-08 12:37 | 48.56112 | 1.46713 | 13243 ft | 304 kts | 60° |
| 2026-05-08 12:37 | 48.57313 | 1.49257 | 12953 ft | 294 kts | 46° |
| 2026-05-08 12:37 | 48.58799 | 1.51290 | 12607 ft | 284 kts | 34° |
| 2026-05-08 12:38 | 48.60482 | 1.52801 | 12246 ft | 280 kts | 24° |
| 2026-05-08 12:38 | 48.62227 | 1.54080 | 11868 ft | 278 kts | 25° |
| 2026-05-08 12:38 | 48.63960 | 1.55359 | 11494 ft | 276 kts | 25° |
| 2026-05-08 12:38 | 48.65683 | 1.56636 | 11227 ft | 272 kts | 25° |
| 2026-05-08 12:39 | 48.67355 | 1.57877 | 11100 ft | 266 kts | 26° |
| 2026-05-08 12:39 | 48.69008 | 1.59093 | 11046 ft | 263 kts | 25° |
| 2026-05-08 12:39 | 48.70653 | 1.60301 | 11052 ft | 263 kts | 25° |
| 2026-05-08 12:39 | 48.72303 | 1.61526 | 11052 ft | 264 kts | 26° |
| 2026-05-08 12:40 | 48.73947 | 1.62764 | 11054 ft | 263 kts | 26° |
| 2026-05-08 12:40 | 48.75582 | 1.64009 | 11054 ft | 263 kts | 26° |
| 2026-05-08 12:40 | 48.77217 | 1.65264 | 11052 ft | 264 kts | 26° |
| 2026-05-08 12:40 | 48.78854 | 1.66526 | 11055 ft | 264 kts | 26° |
| 2026-05-08 12:41 | 48.80483 | 1.67787 | 11054 ft | 263 kts | 27° |
| 2026-05-08 12:41 | 48.82116 | 1.69052 | 11057 ft | 264 kts | 26° |
| 2026-05-08 12:41 | 48.83749 | 1.70317 | 11059 ft | 263 kts | 27° |
| 2026-05-08 12:41 | 48.85379 | 1.71582 | 11060 ft | 263 kts | 26° |
| 2026-05-08 12:42 | 48.87011 | 1.72849 | 11062 ft | 264 kts | 27° |
| 2026-05-08 12:42 | 48.88645 | 1.74118 | 11037 ft | 263 kts | 26° |
| 2026-05-08 12:42 | 48.90265 | 1.75374 | 10708 ft | 261 kts | 26° |
| 2026-05-08 12:42 | 48.91880 | 1.76629 | 10312 ft | 261 kts | 26° |
| 2026-05-08 12:43 | 48.93488 | 1.77879 | 9986 ft | 258 kts | 26° |
| 2026-05-08 12:43 | 48.95078 | 1.79116 | 9641 ft | 255 kts | 26° |
| 2026-05-08 12:43 | 48.96653 | 1.80344 | 9260 ft | 254 kts | 26° |
| 2026-05-08 12:43 | 48.98219 | 1.81567 | 8905 ft | 252 kts | 26° |
| 2026-05-08 12:44 | 48.99768 | 1.82776 | 8610 ft | 246 kts | 26° |
| 2026-05-08 12:44 | 49.01271 | 1.83945 | 8126 ft | 240 kts | 26° |
| 2026-05-08 12:44 | 49.02618 | 1.85389 | 7584 ft | 236 kts | 52° |
| 2026-05-08 12:44 | 49.03283 | 1.87614 | 7076 ft | 233 kts | 85° |
| 2026-05-08 12:45 | 49.03042 | 1.90007 | 6706 ft | 231 kts | 114° |
| 2026-05-08 12:45 | 49.02289 | 1.92159 | 6396 ft | 227 kts | 121° |
| 2026-05-08 12:45 | 49.01495 | 1.94133 | 6173 ft | 211 kts | 122° |
| 2026-05-08 12:45 | 49.00733 | 1.95983 | 5802 ft | 205 kts | 122° |
| 2026-05-08 12:46 | 48.99990 | 1.97759 | 5648 ft | 192 kts | 122° |
| 2026-05-08 12:46 | 48.99284 | 1.99435 | 5348 ft | 187 kts | 122° |
| 2026-05-08 12:46 | 48.98582 | 2.01084 | 5021 ft | 183 kts | 122° |
| 2026-05-08 12:46 | 48.97910 | 2.02631 | 4981 ft | 170 kts | 121° |
| 2026-05-08 12:47 | 48.97547 | 2.04299 | 4990 ft | 166 kts | 94° |
| 2026-05-08 12:47 | 48.97437 | 2.06037 | 4984 ft | 164 kts | 95° |
| 2026-05-08 12:47 | 48.97326 | 2.07768 | 4983 ft | 163 kts | 95° |
| 2026-05-08 12:47 | 48.97218 | 2.09466 | 4980 ft | 161 kts | 95° |
| 2026-05-08 12:48 | 48.97112 | 2.11150 | 4987 ft | 161 kts | 95° |
| 2026-05-08 12:48 | 48.97005 | 2.12843 | 4984 ft | 161 kts | 95° |
| 2026-05-08 12:48 | 48.96961 | 2.14530 | 4983 ft | 158 kts | 84° |
| 2026-05-08 12:48 | 48.97063 | 2.16210 | 4981 ft | 161 kts | 85° |
| 2026-05-08 12:49 | 48.97157 | 2.17900 | 4980 ft | 160 kts | 85° |
| 2026-05-08 12:49 | 48.97245 | 2.19592 | 4971 ft | 161 kts | 85° |
| 2026-05-08 12:49 | 48.97339 | 2.21301 | 4853 ft | 163 kts | 84° |
| 2026-05-08 12:49 | 48.97435 | 2.23016 | 4664 ft | 162 kts | 84° |
| 2026-05-08 12:50 | 48.97530 | 2.24711 | 4455 ft | 161 kts | 85° |
| 2026-05-08 12:50 | 48.97626 | 2.26402 | 4239 ft | 161 kts | 85° |
| 2026-05-08 12:50 | 48.97722 | 2.28106 | 4026 ft | 161 kts | 84° |
| 2026-05-08 12:50 | 48.97817 | 2.29795 | 3812 ft | 159 kts | 85° |
| 2026-05-08 12:51 | 48.97911 | 2.31467 | 3597 ft | 158 kts | 84° |
| 2026-05-08 12:51 | 48.98096 | 2.34787 | 3174 ft | 158 kts | 85° |
| 2026-05-08 12:51 | 48.98189 | 2.36447 | 2965 ft | 157 kts | 85° |
| 2026-05-08 12:52 | 48.98281 | 2.38111 | 2758 ft | 157 kts | 85° |
| 2026-05-08 12:52 | 48.98463 | 2.41393 | 2336 ft | 155 kts | 85° |
| 2026-05-08 12:52 | 48.98553 | 2.43021 | 2131 ft | 155 kts | 84° |
| 2026-05-08 12:53 | 48.98642 | 2.44647 | 1925 ft | 153 kts | 84° |
| 2026-05-08 12:53 | 48.98731 | 2.46263 | 1717 ft | 152 kts | 85° |
| 2026-05-08 12:53 | 48.98818 | 2.47856 | 1509 ft | 148 kts | 85° |
| 2026-05-08 12:53 | 48.98903 | 2.49412 | 1313 ft | 145 kts | 85° |
| 2026-05-08 12:54 | 48.98985 | 2.50916 | 1113 ft | 142 kts | 85° |
| 2026-05-08 12:54 | 48.99067 | 2.52421 | 930 ft | 144 kts | 84° |
| 2026-05-08 12:54 | 48.99148 | 2.53926 | 734 ft | 141 kts | 85° |
| 2026-05-08 12:54 | 48.99228 | 2.55409 | 559 ft | 140 kts | 84° |
| 2026-05-08 12:55 | 48.99307 | 2.56865 | 369 ft | 137 kts | 84° |
| 2026-05-08 12:55 | 48.99373 | 2.58105 | 359 ft | 81 kts | 85° |
| 2026-05-08 12:55 | 48.99395 | 2.58506 | 353 ft | 7 kts | 86° |
| 2026-05-08 12:55 | 48.99410 | 2.58759 | 357 ft | 36 kts | 84° |
| 2026-05-08 12:56 | 48.99436 | 2.59131 | 355 ft | 30 kts | 77° |
| 2026-05-08 12:56 | 48.99497 | 2.59353 | 353 ft | 20 kts | 66° |
| 2026-05-08 12:56 | 48.99558 | 2.59555 | 360 ft | 19 kts | 65° |
| 2026-05-08 12:56 | 48.99656 | 2.59690 | 362 ft | 15 kts | 350° |
| 2026-05-08 12:57 | 48.99754 | 2.59680 | 356 ft | 18 kts | 358° |
| 2026-05-08 12:57 | 48.99867 | 2.59666 | 353 ft | 10 kts | 356° |
| 2026-05-08 12:57 | 48.99881 | 2.59665 | 353 ft | 0 kts | 356° |
| 2026-05-08 12:58 | 48.99889 | 2.59663 | 353 ft | 2 kts | 354° |
| 2026-05-08 12:58 | 48.99909 | 2.59661 | 362 ft | 4 kts | 354° |
| 2026-05-08 12:58 | 48.99948 | 2.59656 | 357 ft | 7 kts | 355° |
| 2026-05-08 12:59 | 49.00009 | 2.59648 | 357 ft | 8 kts | 355° |
| 2026-05-08 12:59 | 49.00077 | 2.59640 | 357 ft | 12 kts | 355° |
| 2026-05-08 12:59 | 49.00175 | 2.59627 | 357 ft | 16 kts | 355° |
| 2026-05-08 12:59 | 49.00283 | 2.59615 | 359 ft | 16 kts | 355° |
| 2026-05-08 13:00 | 49.00391 | 2.59601 | 356 ft | 16 kts | 354° |
| 2026-05-08 13:00 | 49.00509 | 2.59586 | 357 ft | 19 kts | 355° |
| 2026-05-08 13:00 | 49.00653 | 2.59568 | 359 ft | 23 kts | 356° |
| 2026-05-08 13:00 | 49.00802 | 2.59551 | 357 ft | 14 kts | 355° |
| 2026-05-08 13:01 | 49.00886 | 2.59483 | 359 ft | 16 kts | 289° |
| 2026-05-08 13:01 | 49.00882 | 2.59306 | 354 ft | 18 kts | 265° |
| 2026-05-08 13:01 | 49.00874 | 2.59133 | 359 ft | 17 kts | 266° |
| 2026-05-08 13:01 | 49.00864 | 2.58951 | 357 ft | 18 kts | 266° |
| 2026-05-08 13:02 | 49.00852 | 2.58742 | 361 ft | 21 kts | 265° |
| 2026-05-08 13:02 | 49.00839 | 2.58513 | 358 ft | 22 kts | 265° |
| 2026-05-08 13:02 | 49.00830 | 2.58322 | 354 ft | 18 kts | 266° |
| 2026-05-08 13:02 | 49.00819 | 2.58140 | 354 ft | 13 kts | 265° |
| 2026-05-08 13:03 | 49.00809 | 2.58035 | 362 ft | 6 kts | 233° |
| 2026-05-08 13:03 | 49.00772 | 2.58006 | 359 ft | 4 kts | 217° |
| 2026-05-08 13:03 | 49.00759 | 2.57989 | 359 ft | 2 kts | 221° |
| 2026-05-08 13:03 | 49.00750 | 2.57976 | 363 ft | 1 kts | 223° |
| 2026-05-08 13:04 | 49.00746 | 2.57970 | 357 ft | 0 kts | 223° |